createdAt,value
2022-12-05T00:00:24.258Z,70.30
2022-12-05T00:05:27.761Z,71.20
2022-12-05T00:10:31.264Z,71.10
2022-12-05T00:15:39.785Z,71.20
2022-12-05T00:20:46.809Z,71.20
2022-12-05T00:25:50.240Z,70.90
2022-12-05T00:30:55.145Z,70.40
2022-12-05T00:36:03.717Z,71.20
2022-12-05T00:41:07.965Z,71.20
2022-12-05T00:46:16.162Z,71.10
2022-12-05T00:51:22.038Z,71.20
2022-12-05T00:56:26.531Z,71.10
2022-12-05T01:01:33.265Z,71.10
2022-12-05T01:06:36.979Z,70.80
2022-12-05T01:11:41.655Z,71.20
2022-12-05T01:16:48.357Z,71.00
2022-12-05T01:21:52.047Z,70.90
2022-12-05T01:26:55.632Z,71.10
2022-12-05T01:32:00.724Z,71.50
2022-12-05T01:37:04.267Z,71.40
2022-12-05T01:42:08.007Z,71.40
2022-12-05T01:47:13.002Z,71.60
2022-12-05T01:52:19.385Z,71.40
2022-12-05T01:57:23.899Z,71.80
2022-12-05T02:02:30.225Z,71.50
2022-12-05T02:07:34.254Z,71.80
2022-12-05T02:12:39.220Z,71.30
2022-12-05T02:17:53.035Z,71.60
2022-12-05T02:23:38.633Z,71.40
2022-12-05T02:29:20.128Z,71.50
2022-12-05T02:34:28.920Z,71.90
2022-12-05T02:39:41.573Z,71.70
2022-12-05T02:44:48.553Z,71.90
2022-12-05T02:49:54.113Z,71.90
2022-12-05T02:54:57.669Z,71.70
2022-12-05T03:00:01.108Z,71.80
2022-12-05T03:05:16.561Z,71.90
2022-12-05T03:10:23.637Z,72.10
2022-12-05T03:15:30.919Z,71.80
2022-12-05T03:20:38.906Z,71.90
2022-12-05T03:25:47.961Z,72.20
2022-12-05T03:30:54.842Z,71.70
2022-12-05T03:36:03.988Z,71.80
2022-12-05T03:41:11.125Z,72.30
2022-12-05T03:46:17.813Z,71.70
2022-12-05T03:51:25.222Z,72.40
2022-12-05T03:56:32.719Z,72.40
2022-12-05T04:01:37.050Z,72.40
2022-12-05T04:06:42.684Z,72.70
2022-12-05T04:11:49.461Z,72.50
2022-12-05T04:17:04.862Z,72.20
2022-12-05T04:22:09.804Z,72.30
2022-12-05T04:27:24.107Z,72.30
2022-12-05T04:32:30.641Z,72.80
2022-12-05T04:37:40.788Z,72.70
2022-12-05T04:42:44.939Z,72.80
2022-12-05T04:47:51.814Z,72.80
2022-12-05T04:52:58.574Z,72.70
2022-12-05T04:58:07.819Z,72.70
2022-12-05T05:03:14.983Z,72.90
2022-12-05T05:08:21.134Z,72.70
2022-12-05T05:13:24.731Z,72.80
2022-12-05T05:18:28.242Z,72.90
2022-12-05T05:23:33.106Z,73.00
2022-12-05T05:28:36.534Z,72.80
2022-12-05T05:33:40.290Z,72.90
2022-12-05T05:38:46.258Z,72.90
2022-12-05T05:43:50.517Z,73.20
2022-12-05T05:48:54.168Z,73.00
2022-12-05T05:53:59.528Z,73.40
2022-12-05T05:59:05.113Z,73.30
2022-12-05T06:04:08.868Z,73.30
2022-12-05T06:09:13.865Z,73.20
2022-12-05T06:14:17.305Z,73.30
2022-12-05T06:19:20.756Z,73.40
2022-12-05T06:24:25.674Z,73.30
2022-12-05T06:29:33.502Z,73.50
2022-12-05T06:34:37.738Z,73.60
2022-12-05T06:39:42.815Z,73.20
2022-12-05T06:44:46.282Z,73.40
2022-12-05T06:49:49.861Z,73.20
2022-12-05T06:54:54.749Z,73.50
2022-12-05T07:00:22.475Z,73.50
2022-12-05T07:05:25.997Z,73.10
2022-12-05T07:10:30.854Z,73.40
2022-12-05T07:15:34.391Z,73.20
2022-12-05T07:21:03.973Z,73.40
2022-12-05T07:26:06.250Z,73.20
2022-12-05T07:31:11.430Z,73.30
2022-12-05T07:36:16.337Z,73.10
2022-12-05T07:41:23.738Z,73.40
2022-12-05T07:46:28.112Z,73.10
2022-12-05T07:51:31.926Z,73.30
2022-12-05T07:56:40.922Z,73.50
2022-12-05T08:01:46.850Z,73.60
2022-12-05T08:06:50.432Z,73.60
2022-12-05T08:11:55.361Z,73.70
2022-12-05T08:16:58.980Z,73.70
2022-12-05T08:22:02.531Z,73.60
2022-12-05T08:27:08.344Z,73.70
2022-12-05T08:32:11.889Z,73.90
2022-12-05T08:37:15.383Z,73.70
2022-12-05T08:42:20.309Z,73.80
2022-12-05T08:47:23.825Z,74.10
2022-12-05T08:52:27.371Z,74.10
2022-12-05T08:57:32.262Z,73.80
2022-12-05T09:02:35.837Z,74.00
2022-12-05T09:07:39.365Z,73.90
2022-12-05T09:12:44.220Z,74.00
2022-12-05T09:17:47.814Z,74.30
2022-12-05T09:22:51.320Z,74.60
2022-12-05T09:27:56.637Z,74.30
2022-12-05T09:33:00.170Z,74.50
2022-12-05T09:38:03.698Z,74.50
2022-12-05T09:43:09.117Z,74.20
2022-12-05T09:48:15.652Z,74.40
2022-12-05T09:53:27.563Z,74.30
2022-12-05T09:58:41.611Z,74.60
2022-12-05T10:03:48.640Z,74.60
2022-12-05T10:09:06.549Z,74.60
2022-12-05T10:14:15.485Z,74.30
2022-12-05T10:19:23.374Z,74.50
2022-12-05T10:24:32.223Z,74.50
2022-12-05T10:29:40.114Z,74.60
2022-12-05T10:34:45.673Z,74.50
2022-12-05T10:39:50.428Z,74.50
2022-12-05T10:44:58.501Z,74.60
2022-12-05T10:50:06.630Z,74.30
2022-12-05T10:55:15.581Z,74.40
2022-12-05T11:00:25.477Z,74.50
2022-12-05T11:05:31.140Z,74.40
2022-12-05T11:10:37.890Z,74.40
2022-12-05T11:15:49.404Z,74.80
2022-12-05T11:20:55.724Z,74.60
2022-12-05T11:26:00.129Z,74.30
2022-12-05T11:31:06.671Z,74.70
2022-12-05T11:36:14.518Z,74.90
2022-12-05T11:41:32.625Z,74.50
2022-12-05T11:46:48.122Z,75.00
2022-12-05T11:51:59.659Z,75.00
2022-12-05T11:57:08.288Z,74.90
2022-12-05T12:02:22.283Z,75.30
2022-12-05T12:07:41.196Z,75.20
2022-12-05T12:12:53.254Z,75.20
2022-12-05T12:18:04.237Z,75.10
2022-12-05T12:23:20.021Z,75.20
2022-12-05T12:28:32.711Z,75.30
2022-12-05T12:33:40.703Z,75.50
2022-12-05T12:39:05.249Z,75.40
2022-12-05T12:44:25.193Z,75.30
2022-12-05T12:49:41.385Z,75.30
2022-12-05T12:55:04.217Z,75.50
2022-12-05T13:00:17.314Z,75.60
2022-12-05T13:05:25.192Z,75.40
2022-12-05T13:10:33.214Z,75.40
2022-12-05T13:15:41.127Z,75.50
2022-12-05T13:20:46.248Z,75.40
2022-12-05T13:25:50.511Z,75.70
2022-12-05T13:31:01.784Z,75.60
2022-12-05T13:36:28.997Z,75.50
2022-12-05T13:42:00.370Z,75.80
2022-12-05T13:47:07.547Z,75.90
2022-12-05T13:52:16.185Z,75.90
2022-12-05T13:57:48.859Z,75.90
2022-12-05T14:02:54.196Z,75.90
2022-12-05T14:08:03.660Z,75.90
2022-12-05T14:13:42.181Z,75.90
2022-12-05T14:18:50.046Z,75.90
2022-12-05T14:24:08.633Z,75.80
2022-12-05T14:29:35.794Z,75.80
2022-12-05T14:34:40.163Z,75.90
2022-12-05T14:39:46.974Z,76.00
2022-12-05T14:44:51.448Z,75.90
2022-12-05T14:50:02.260Z,76.30
2022-12-05T14:55:14.372Z,75.90
2022-12-05T15:00:22.618Z,75.80
2022-12-05T15:05:28.942Z,76.00
2022-12-05T15:10:36.413Z,76.00
2022-12-05T15:15:44.269Z,76.00
2022-12-05T15:20:52.487Z,75.90
2022-12-05T15:26:07.670Z,75.90
2022-12-05T15:31:20.939Z,75.90
2022-12-05T15:36:29.979Z,75.80
2022-12-05T15:41:35.191Z,76.00
2022-12-05T15:46:38.755Z,75.90
2022-12-05T15:51:42.312Z,75.90
2022-12-05T15:56:50.387Z,75.70
2022-12-05T16:01:56.886Z,76.00
2022-12-05T16:07:05.025Z,76.10
2022-12-05T16:12:20.915Z,76.00
2022-12-05T16:17:24.613Z,76.00
2022-12-05T16:22:29.224Z,76.00
2022-12-05T16:27:39.048Z,76.00
2022-12-05T16:32:43.241Z,76.10
2022-12-05T16:37:46.735Z,76.20
2022-12-05T16:43:02.896Z,76.00
2022-12-05T16:48:16.144Z,76.10
2022-12-05T16:53:23.028Z,76.20
2022-12-05T16:58:30.058Z,75.60
2022-12-05T17:03:35.422Z,76.20
2022-12-05T17:08:39.790Z,76.20
2022-12-05T17:13:45.554Z,76.20
2022-12-05T17:18:49.258Z,76.30
2022-12-05T17:23:53.094Z,76.20
2022-12-05T17:28:58.218Z,76.40
2022-12-05T17:34:01.738Z,76.20
2022-12-05T17:39:05.400Z,76.40
2022-12-05T17:44:12.770Z,76.40
2022-12-05T17:49:20.285Z,76.50
2022-12-05T17:54:23.822Z,76.60
2022-12-05T17:59:28.758Z,76.50
2022-12-05T18:04:32.325Z,76.50
2022-12-05T18:09:35.770Z,76.50
2022-12-05T18:14:40.661Z,76.60
2022-12-05T18:19:44.104Z,76.60
2022-12-05T18:24:47.589Z,76.50
2022-12-05T18:29:52.665Z,76.80
2022-12-05T18:34:59.225Z,76.70
2022-12-05T18:40:02.933Z,77.00
2022-12-05T18:45:09.285Z,77.00
2022-12-05T18:50:12.947Z,76.80
2022-12-05T18:55:19.796Z,76.60
2022-12-05T19:00:28.473Z,76.80
2022-12-05T19:05:32.159Z,76.80
2022-12-05T19:10:37.602Z,76.90
2022-12-05T19:15:42.484Z,77.00
2022-12-05T19:20:51.709Z,77.10
2022-12-05T19:25:56.932Z,77.20
2022-12-05T19:31:03.016Z,77.10
2022-12-05T19:36:08.628Z,77.30
2022-12-05T19:41:14.094Z,77.20
2022-12-05T19:46:21.141Z,77.40
2022-12-05T19:51:25.018Z,77.40
2022-12-05T19:56:30.053Z,77.20
2022-12-05T20:01:37.235Z,77.30
2022-12-05T20:06:42.770Z,77.20
2022-12-05T20:11:54.093Z,77.30
2022-12-05T20:17:00.261Z,77.50
2022-12-05T20:22:03.864Z,77.40
2022-12-05T20:27:07.549Z,77.30
2022-12-05T20:32:12.423Z,77.40
2022-12-05T20:37:15.972Z,77.40
2022-12-05T20:42:19.444Z,77.50
2022-12-05T20:47:24.409Z,77.30
2022-12-05T20:52:27.898Z,77.50
2022-12-05T20:57:33.412Z,77.40
2022-12-05T21:02:38.366Z,77.60
2022-12-05T21:07:41.967Z,77.60
2022-12-05T21:12:45.490Z,77.40
2022-12-05T21:17:50.342Z,77.40
2022-12-05T21:22:53.911Z,77.40
2022-12-05T21:27:57.434Z,77.70
2022-12-05T21:33:02.337Z,77.50
2022-12-05T21:38:05.830Z,77.60
2022-12-05T21:43:09.297Z,77.50
2022-12-05T21:48:14.203Z,77.70
2022-12-05T21:53:17.980Z,77.70
2022-12-05T21:58:21.525Z,77.60
2022-12-05T22:03:26.386Z,77.60
2022-12-05T22:08:30.586Z,77.40
2022-12-05T22:13:34.349Z,77.70
2022-12-05T22:18:39.486Z,77.50
2022-12-05T22:23:43.029Z,77.80
2022-12-05T22:28:46.824Z,77.80
2022-12-05T22:33:51.911Z,77.50
2022-12-05T22:38:55.403Z,77.70
2022-12-05T22:44:00.432Z,77.70
2022-12-05T22:49:06.356Z,77.80
2022-12-05T22:54:09.852Z,77.60
2022-12-05T22:59:14.864Z,77.70
2022-12-05T23:04:20.362Z,77.80
2022-12-05T23:09:24.076Z,77.90
2022-12-05T23:14:27.602Z,78.10
2022-12-05T23:19:32.498Z,77.90
2022-12-05T23:24:35.986Z,77.90
2022-12-05T23:29:39.502Z,77.80
2022-12-05T23:34:44.402Z,78.10
2022-12-05T23:39:47.898Z,77.90
2022-12-05T23:44:51.421Z,77.80
2022-12-05T23:49:56.453Z,77.90
2022-12-05T23:55:00.245Z,78.10
